createdAt,value
2018-07-15T00:00:06.400Z,1006.05
2018-07-15T00:01:06.418Z,1006.39
2018-07-15T00:02:06.399Z,1006.22
2018-07-15T00:03:06.412Z,1005.96
2018-07-15T00:04:06.412Z,1005.95
2018-07-15T00:05:06.400Z,1006.01
2018-07-15T00:06:06.396Z,1005.56
2018-07-15T00:07:06.642Z,1005.64
2018-07-15T00:08:06.416Z,1005.72
2018-07-15T00:09:07.131Z,1005.29
2018-07-15T00:10:06.425Z,1004.81
2018-07-15T00:11:06.410Z,1004.92
2018-07-15T00:12:06.456Z,1004.6
2018-07-15T00:13:06.519Z,1004.67
2018-07-15T00:14:06.484Z,1004.19
2018-07-15T00:15:06.456Z,1004.55
2018-07-15T00:16:06.490Z,1004.28
2018-07-15T00:17:06.450Z,1004.23
2018-07-15T00:18:06.433Z,1004.34
2018-07-15T00:19:06.433Z,1004.11
2018-07-15T00:20:06.447Z,1003.73
2018-07-15T00:21:06.473Z,1003.66
2018-07-15T00:22:06.503Z,1003.42
2018-07-15T00:23:06.461Z,1003.16
2018-07-15T00:24:06.470Z,1003.26
2018-07-15T00:25:06.471Z,1003.05
2018-07-15T00:26:06.435Z,1003.06
2018-07-15T00:27:06.471Z,1002.9
2018-07-15T00:28:06.475Z,1002.99
2018-07-15T00:29:06.452Z,1002.84
2018-07-15T00:30:06.502Z,1002.39
2018-07-15T00:31:06.458Z,1002.48
2018-07-15T00:32:06.471Z,1002.44
2018-07-15T00:33:06.474Z,1002.52
2018-07-15T00:34:06.454Z,1002.36
2018-07-15T00:35:06.522Z,1002.34
2018-07-15T00:36:06.465Z,1001.99
2018-07-15T00:37:06.450Z,1002.25
2018-07-15T00:38:06.465Z,1002.27
2018-07-15T00:39:06.473Z,1002.02
2018-07-15T00:40:06.461Z,1001.96
2018-07-15T00:41:06.467Z,1001.57
2018-07-15T00:42:06.505Z,1001.62
2018-07-15T00:43:06.485Z,1001.45
2018-07-15T00:44:06.499Z,1001.64
2018-07-15T00:45:06.479Z,1001.47
2018-07-15T00:46:06.476Z,1001.56
2018-07-15T00:47:06.481Z,1001.11
2018-07-15T00:48:06.542Z,1001.21
2018-07-15T00:49:06.479Z,1001.25
2018-07-15T00:50:22.642Z,1001.14
2018-07-15T00:51:22.592Z,1001.07
2018-07-15T00:52:24.135Z,1001.03
2018-07-15T00:53:22.634Z,1001.12
2018-07-15T00:54:23.078Z,1000.82
2018-07-15T00:55:22.658Z,1001.11
2018-07-15T00:56:22.779Z,1000.81
2018-07-15T00:57:22.599Z,1000.64
2018-07-15T00:58:22.589Z,1000.74
2018-07-15T00:59:22.614Z,1000.92
2018-07-15T01:00:22.621Z,1000.94
2018-07-15T01:01:22.621Z,1000.56
2018-07-15T01:02:22.639Z,1000.81
2018-07-15T01:03:22.645Z,1000.36
2018-07-15T01:04:22.602Z,1000.35
2018-07-15T01:05:23.022Z,1000.55
2018-07-15T01:06:22.643Z,1000.27
2018-07-15T01:07:22.650Z,1000.36
2018-07-15T01:08:22.625Z,1000.08
2018-07-15T01:09:22.678Z,999.87
2018-07-15T01:10:22.616Z,999.79
2018-07-15T01:11:22.726Z,999.75
2018-07-15T01:12:22.652Z,999.77
2018-07-15T01:13:22.628Z,999.62
2018-07-15T01:14:22.644Z,999.62
2018-07-15T01:15:22.674Z,999.49
2018-07-15T01:16:22.647Z,999.31
2018-07-15T01:20:51.142Z,999.26
2018-07-15T01:21:51.164Z,999.23
2018-07-15T01:22:51.164Z,999.06
2018-07-15T01:23:51.160Z,999.22
2018-07-15T01:24:51.141Z,999.08
2018-07-15T01:25:51.153Z,999.03
2018-07-15T01:26:51.131Z,998.95
2018-07-15T01:27:51.156Z,998.79
2018-07-15T01:28:51.162Z,998.72
2018-07-15T01:29:51.177Z,998.65
2018-07-15T01:30:51.131Z,998.77
2018-07-15T01:31:51.212Z,998.57
2018-07-15T01:32:51.239Z,998.64
2018-07-15T01:33:51.159Z,998.48
2018-07-15T01:34:51.207Z,998.65
2018-07-15T01:35:51.192Z,998.45
2018-07-15T01:36:51.202Z,998.43
2018-07-15T01:37:51.199Z,998.35
2018-07-15T01:38:51.192Z,997.87
2018-07-15T01:39:51.194Z,997.96
2018-07-15T01:40:51.173Z,998.02
2018-07-15T01:41:51.226Z,997.76
2018-07-15T01:42:51.215Z,997.8
2018-07-15T01:43:51.164Z,997.75
2018-07-15T01:44:51.198Z,998.08
2018-07-15T01:45:51.229Z,997.71
2018-07-15T01:46:51.214Z,997.27
2018-07-15T01:47:51.210Z,997.43
2018-07-15T01:48:51.174Z,997.15
2018-07-15T01:49:53.188Z,997.24
2018-07-15T01:50:51.195Z,997.11
2018-07-15T01:51:51.236Z,997.22
2018-07-15T01:52:51.243Z,997.07
2018-07-15T01:53:51.197Z,996.91
2018-07-15T01:54:51.193Z,997.24
2018-07-15T01:56:07.366Z,997.04
2018-07-15T01:57:07.304Z,997.05
2018-07-15T01:58:07.311Z,997.08
2018-07-15T01:59:07.320Z,996.89
2018-07-15T02:00:07.333Z,996.78
2018-07-15T02:01:07.329Z,996.98
2018-07-15T02:02:07.310Z,996.88
2018-07-15T02:03:07.311Z,996.75
2018-07-15T02:04:07.318Z,996.43
2018-07-15T02:05:07.346Z,996.61
2018-07-15T02:06:07.308Z,996.71
2018-07-15T02:07:07.321Z,996.72
2018-07-15T02:08:07.316Z,996.64
2018-07-15T02:09:07.360Z,996.51
2018-07-15T02:10:07.351Z,996.7
2018-07-15T02:11:07.320Z,996.84
2018-07-15T02:12:07.327Z,996.47
2018-07-15T02:13:07.328Z,996.64
2018-07-15T02:14:07.363Z,996.39
2018-07-15T02:15:07.361Z,996.35
2018-07-15T02:16:07.359Z,996.88
2018-07-15T02:17:07.332Z,995.98
2018-07-15T02:18:07.360Z,996.05
2018-07-15T02:19:07.339Z,996.09
2018-07-15T02:20:07.347Z,995.81
2018-07-15T02:21:07.345Z,996.08
2018-07-15T02:22:07.355Z,996.1
2018-07-15T02:23:07.411Z,995.82
2018-07-15T02:24:07.356Z,995.82
2018-07-15T02:25:07.366Z,995.78
2018-07-15T02:26:07.387Z,995.73
2018-07-15T02:27:07.371Z,995.39
2018-07-15T02:28:07.399Z,996.08
2018-07-15T02:29:07.382Z,995.71
2018-07-15T02:30:07.398Z,995.66
2018-07-15T02:31:07.698Z,995.51
2018-07-15T02:32:07.370Z,995.6
2018-07-15T02:33:07.419Z,995.51
2018-07-15T02:34:07.395Z,995.21
2018-07-15T02:35:07.388Z,995.58
2018-07-15T02:36:07.415Z,995.21
2018-07-15T02:37:07.367Z,995.37
2018-07-15T02:38:07.389Z,995.17
2018-07-15T02:39:07.393Z,995.22
2018-07-15T02:40:07.401Z,995.13
2018-07-15T02:41:07.418Z,995.32
2018-07-15T02:42:07.363Z,995.15
2018-07-15T02:43:07.440Z,995.07
2018-07-15T02:44:07.404Z,995.26
2018-07-15T02:45:07.434Z,994.89
2018-07-15T02:46:07.416Z,995.23
2018-07-15T02:47:07.429Z,994.89
2018-07-15T02:48:07.412Z,994.81
2018-07-15T02:49:07.396Z,994.79
2018-07-15T02:50:07.443Z,994.72
2018-07-15T02:51:07.396Z,994.69
2018-07-15T02:52:07.463Z,994.52
2018-07-15T02:53:07.424Z,994.57
2018-07-15T02:54:07.415Z,994.53
2018-07-15T02:55:07.427Z,994.43
2018-07-15T02:56:07.412Z,994.43
2018-07-15T02:57:07.442Z,994.6
2018-07-15T02:58:07.436Z,994.7
2018-07-15T02:59:07.423Z,994.45
2018-07-15T03:00:07.401Z,994.52
2018-07-15T03:01:07.436Z,994.45
2018-07-15T03:02:07.449Z,994.52
2018-07-15T03:03:07.455Z,994.51
2018-07-15T03:04:07.448Z,994.33
2018-07-15T03:05:07.434Z,994.2
2018-07-15T03:06:09.823Z,994.46
2018-07-15T03:07:07.433Z,994.47
2018-07-15T03:08:07.452Z,994.09
2018-07-15T03:09:07.430Z,994.34
2018-07-15T03:10:07.424Z,993.86
2018-07-15T03:11:07.456Z,994.09
2018-07-15T03:12:07.459Z,994.17
2018-07-15T03:13:07.470Z,994.24
2018-07-15T03:14:07.448Z,994.52
2018-07-15T03:15:07.477Z,994.13
2018-07-15T03:16:07.441Z,994.29
2018-07-15T03:17:07.517Z,994.4
2018-07-15T03:18:07.450Z,994.07
2018-07-15T03:19:07.489Z,994.01
2018-07-15T03:20:07.493Z,993.7
2018-07-15T03:21:07.474Z,993.78
2018-07-15T03:22:07.478Z,993.69
2018-07-15T03:23:07.482Z,994.06
2018-07-15T03:24:07.479Z,993.68
2018-07-15T03:25:07.448Z,994
2018-07-15T03:26:07.508Z,994.04
2018-07-15T03:27:07.510Z,993.88
2018-07-15T03:28:07.465Z,994.14
2018-07-15T03:29:07.487Z,993.83
2018-07-15T03:30:07.484Z,994.13
2018-07-15T03:31:07.477Z,993.87
2018-07-15T03:32:07.491Z,993.95
2018-07-15T03:33:07.485Z,994.27
2018-07-15T03:34:07.560Z,993.8
2018-07-15T03:35:07.471Z,993.97
2018-07-15T03:36:07.479Z,993.92
2018-07-15T03:37:07.497Z,994
2018-07-15T03:38:07.480Z,994
2018-07-15T03:39:07.497Z,994.29
2018-07-15T03:40:07.507Z,994.22
2018-07-15T03:41:07.490Z,994.01
2018-07-15T03:42:07.493Z,994.2
2018-07-15T03:43:07.503Z,994.24
2018-07-15T03:44:07.514Z,994.47
2018-07-15T03:45:07.512Z,994.09
2018-07-15T03:46:07.527Z,994.16
2018-07-15T03:47:07.555Z,994.21
2018-07-15T03:48:07.519Z,994.26
2018-07-15T03:49:07.517Z,994.07
2018-07-15T03:50:07.519Z,994.01
2018-07-15T03:51:07.567Z,993.89
2018-07-15T03:52:07.523Z,993.75
2018-07-15T03:53:07.543Z,994.16
2018-07-15T03:54:07.495Z,994.06
2018-07-15T03:55:07.531Z,993.58
2018-07-15T03:56:07.532Z,993.66
2018-07-15T03:57:07.524Z,994.05
2018-07-15T03:58:07.538Z,993.66
2018-07-15T03:59:07.584Z,993.67
2018-07-15T04:00:07.562Z,993.7
2018-07-15T04:01:07.526Z,993.74
2018-07-15T04:02:07.573Z,994.03
2018-07-15T04:03:07.531Z,994.1
2018-07-15T04:04:07.560Z,993.75
2018-07-15T04:05:07.518Z,993.78
2018-07-15T04:06:07.522Z,994.24
2018-07-15T04:07:07.565Z,993.94
2018-07-15T04:08:07.535Z,994.23
2018-07-15T04:09:07.514Z,994.11
2018-07-15T04:10:07.533Z,993.92
2018-07-15T04:11:07.589Z,994.33
2018-07-15T04:12:07.537Z,994.08
2018-07-15T04:13:07.553Z,994.09
2018-07-15T04:14:07.573Z,993.87
2018-07-15T04:15:07.576Z,993.79
2018-07-15T04:16:07.540Z,993.93
2018-07-15T04:17:07.592Z,993.55
2018-07-15T04:18:07.583Z,993.78
2018-07-15T04:19:07.580Z,994.06
2018-07-15T04:20:07.571Z,993.76
2018-07-15T04:21:07.576Z,993.54
2018-07-15T04:22:07.577Z,993.73
2018-07-15T04:23:07.559Z,993.38
2018-07-15T04:24:07.572Z,993.87
2018-07-15T04:25:07.572Z,993.77
2018-07-15T04:26:07.575Z,993.68
2018-07-15T04:27:07.581Z,993.76
2018-07-15T04:28:07.566Z,993.88
2018-07-15T04:29:07.568Z,993.8
2018-07-15T04:30:07.620Z,993.69
2018-07-15T04:31:07.585Z,993.68
2018-07-15T04:32:07.589Z,993.8
2018-07-15T04:33:07.583Z,993.94
2018-07-15T04:34:07.600Z,993.71
2018-07-15T04:35:07.587Z,993.87
2018-07-15T04:36:07.598Z,994.07
2018-07-15T04:37:07.602Z,994.16
2018-07-15T04:38:07.606Z,993.81
2018-07-15T04:39:07.615Z,993.8
2018-07-15T04:40:07.628Z,993.59
2018-07-15T04:41:07.606Z,993.86
2018-07-15T04:42:07.615Z,994.03
2018-07-15T04:43:07.621Z,993.77
2018-07-15T04:47:36.460Z,993.86
2018-07-15T04:52:06.644Z,993.83
2018-07-15T04:53:06.601Z,993.66
2018-07-15T04:54:06.636Z,993.64
2018-07-15T04:55:06.651Z,993.67
2018-07-15T04:56:06.629Z,993.44
2018-07-15T04:57:06.719Z,993.58
2018-07-15T04:58:06.677Z,993.68
2018-07-15T04:59:06.668Z,993.5
2018-07-15T05:00:06.686Z,993.41
2018-07-15T05:01:06.665Z,993.67
2018-07-15T05:02:06.736Z,993.28
2018-07-15T05:03:06.649Z,993.28
2018-07-15T05:04:06.695Z,993.3
2018-07-15T05:05:06.680Z,993.11
2018-07-15T05:06:06.633Z,993.39
2018-07-15T05:07:06.651Z,993.38
2018-07-15T05:08:06.657Z,993.24
2018-07-15T05:09:07.316Z,993.06
2018-07-15T05:10:06.662Z,993.05
2018-07-15T05:11:06.761Z,992.9
2018-07-15T05:12:06.685Z,992.81
2018-07-15T05:13:06.684Z,992.81
2018-07-15T05:14:06.669Z,992.6
2018-07-15T05:15:06.707Z,992.72
2018-07-15T05:16:06.684Z,992.97
2018-07-15T05:17:07.069Z,993.06
2018-07-15T05:18:06.755Z,993.07
2018-07-15T05:19:06.719Z,992.87
2018-07-15T05:20:06.766Z,992.82
2018-07-15T05:21:06.690Z,993
2018-07-15T05:22:06.688Z,992.91
2018-07-15T05:23:06.731Z,992.94
2018-07-15T05:24:06.679Z,992.84
2018-07-15T05:25:06.764Z,993.04
2018-07-15T05:26:06.702Z,992.9
2018-07-15T05:27:06.714Z,992.92
2018-07-15T05:28:06.756Z,992.97
2018-07-15T05:29:06.739Z,993.14
2018-07-15T05:30:06.700Z,992.76
2018-07-15T05:31:06.747Z,992.68
2018-07-15T05:32:06.724Z,992.9
2018-07-15T05:33:06.698Z,992.7
2018-07-15T05:34:06.699Z,992.71
2018-07-15T05:35:06.816Z,992.86
2018-07-15T05:36:06.706Z,992.69
2018-07-15T05:37:06.714Z,992.67
2018-07-15T05:38:06.716Z,992.59
2018-07-15T05:39:06.724Z,992.78
2018-07-15T05:40:06.727Z,992.6
2018-07-15T05:41:06.715Z,992.22
2018-07-15T05:42:06.720Z,992.44
2018-07-15T05:43:06.773Z,991.98
2018-07-15T05:44:06.728Z,992.76
2018-07-15T05:45:06.731Z,992.14
2018-07-15T05:46:06.729Z,992.11
2018-07-15T05:47:07.042Z,992.19
2018-07-15T05:48:06.752Z,992.4
2018-07-15T05:49:06.721Z,991.65
2018-07-15T05:50:06.748Z,991.64
2018-07-15T05:51:06.726Z,991.64
2018-07-15T05:52:07.307Z,991.47
2018-07-15T05:53:07.146Z,991.56
2018-07-15T05:54:06.750Z,991.72
2018-07-15T05:55:06.755Z,991.59
2018-07-15T05:56:06.741Z,991.51
2018-07-15T05:57:06.853Z,991.66
2018-07-15T05:58:06.840Z,991.67
2018-07-15T05:59:06.764Z,991.85
2018-07-15T06:00:06.737Z,991.85
2018-07-15T06:01:06.737Z,991.97
2018-07-15T06:02:06.755Z,991.92
2018-07-15T06:03:06.758Z,991.99
2018-07-15T06:04:06.767Z,991.61
2018-07-15T06:05:06.748Z,991.72
2018-07-15T06:06:06.754Z,991.72
2018-07-15T06:07:06.763Z,991.53
2018-07-15T06:08:06.782Z,991.58
2018-07-15T06:09:06.769Z,991.39
2018-07-15T06:10:06.764Z,991.32
2018-07-15T06:11:06.780Z,991.38
2018-07-15T06:12:06.768Z,991.5
2018-07-15T06:13:06.764Z,991.5
2018-07-15T06:14:06.780Z,991.24
2018-07-15T06:15:06.749Z,991.45
2018-07-15T06:16:06.756Z,991.04
2018-07-15T06:17:06.883Z,991.31
2018-07-15T06:18:06.814Z,991.35
2018-07-15T06:19:06.789Z,991.08
2018-07-15T06:20:06.812Z,990.94
2018-07-15T06:21:06.832Z,991.39
2018-07-15T06:22:06.819Z,990.87
2018-07-15T06:23:06.834Z,990.91
2018-07-15T06:24:06.833Z,990.83
2018-07-15T06:25:06.842Z,990.83
2018-07-15T06:26:06.810Z,990.64
2018-07-15T06:27:06.787Z,990.73
2018-07-15T06:28:06.822Z,990.47
2018-07-15T06:29:06.805Z,990.62
2018-07-15T06:30:06.808Z,990.44
2018-07-15T06:31:06.834Z,990.2
2018-07-15T06:32:06.812Z,990.4
2018-07-15T06:33:06.800Z,990
2018-07-15T06:34:06.827Z,990.3
2018-07-15T06:35:06.836Z,990.13
2018-07-15T06:36:06.816Z,990.32
2018-07-15T06:37:06.848Z,989.93
2018-07-15T06:38:06.822Z,990.19
2018-07-15T06:39:06.833Z,989.9
2018-07-15T06:40:06.815Z,989.97
2018-07-15T06:41:06.824Z,989.98
2018-07-15T06:42:06.833Z,989.7
2018-07-15T06:43:06.832Z,989.54
2018-07-15T06:44:06.813Z,989.63
2018-07-15T06:45:06.849Z,989.66
2018-07-15T06:46:06.856Z,989.47
2018-07-15T06:47:06.884Z,989.57
2018-07-15T06:48:06.848Z,989.65
2018-07-15T06:49:06.864Z,989.36
2018-07-15T06:50:06.856Z,989.2
2018-07-15T06:51:06.857Z,989.27
2018-07-15T06:52:06.834Z,989.16
2018-07-15T06:53:06.845Z,989.18
2018-07-15T06:54:06.944Z,989.09
2018-07-15T06:55:06.834Z,988.91
2018-07-15T06:56:06.849Z,989.14
2018-07-15T06:57:06.867Z,988.99
2018-07-15T06:58:06.955Z,988.88
2018-07-15T06:59:06.859Z,988.94
2018-07-15T07:00:06.840Z,989.05
2018-07-15T07:01:06.878Z,988.7
2018-07-15T07:02:06.877Z,988.24
2018-07-15T07:03:06.872Z,988.5
2018-07-15T07:04:06.905Z,988.15
2018-07-15T07:05:06.903Z,987.93
2018-07-15T07:06:06.851Z,987.8
2018-07-15T07:07:06.875Z,988.03
2018-07-15T07:08:06.864Z,987.9
2018-07-15T07:09:06.862Z,987.45
2018-07-15T07:10:07.526Z,987.6
2018-07-15T07:11:06.862Z,987.44
2018-07-15T07:12:06.885Z,987.47
2018-07-15T07:13:06.877Z,987.67
2018-07-15T07:14:07.241Z,987.67
2018-07-15T07:15:06.885Z,987.48
2018-07-15T07:16:06.883Z,987.3
2018-07-15T07:17:06.898Z,987.5
2018-07-15T07:18:07.077Z,987.24
2018-07-15T07:19:06.923Z,987.69
2018-07-15T07:20:06.924Z,987.41
2018-07-15T07:21:06.895Z,987.41
2018-07-15T07:22:06.958Z,987.23
2018-07-15T07:23:06.946Z,987.09
2018-07-15T07:24:06.982Z,987.41
2018-07-15T07:25:20.880Z,987.48
2018-07-15T07:26:07.020Z,987.33
2018-07-15T07:27:06.935Z,987.3
2018-07-15T07:28:06.975Z,987.36
2018-07-15T07:29:06.903Z,987.4
2018-07-15T07:30:06.912Z,987.28
2018-07-15T07:31:06.923Z,987.02
2018-07-15T07:32:06.960Z,987.57
2018-07-15T07:33:06.942Z,987.59
2018-07-15T07:34:06.935Z,987.49
2018-07-15T07:35:06.936Z,987.78
2018-07-15T07:36:06.931Z,987.6
2018-07-15T07:37:06.959Z,987.81
2018-07-15T07:38:06.911Z,987.77
2018-07-15T07:39:06.918Z,987.6
2018-07-15T07:40:06.920Z,987.55
2018-07-15T07:41:06.996Z,987.48
2018-07-15T07:42:06.916Z,987.76
2018-07-15T07:43:06.953Z,987.95
2018-07-15T07:44:06.944Z,987.94
2018-07-15T07:45:06.932Z,987.37
2018-07-15T07:46:06.964Z,987.55
2018-07-15T07:47:06.946Z,987.46
2018-07-15T07:48:06.962Z,987.47
2018-07-15T07:49:06.977Z,987.69
2018-07-15T07:50:06.959Z,987.5
2018-07-15T07:51:06.964Z,987.35
2018-07-15T07:52:06.975Z,987.35
2018-07-15T07:53:07.345Z,987.16
2018-07-15T07:54:06.968Z,987.24
2018-07-15T07:55:06.976Z,987.37
2018-07-15T07:56:06.987Z,987.25
2018-07-15T07:57:06.958Z,987.09
2018-07-15T07:58:06.984Z,986.93
2018-07-15T07:59:06.996Z,986.94
2018-07-15T08:00:06.972Z,987.01
2018-07-15T08:01:06.968Z,986.72
2018-07-15T08:02:06.982Z,986.69
2018-07-15T08:03:06.977Z,986.69
2018-07-15T08:04:06.980Z,986.8
2018-07-15T08:05:06.960Z,986.97
2018-07-15T08:06:07.022Z,986.73
2018-07-15T08:07:06.971Z,986.55
2018-07-15T08:08:06.972Z,986.27
2018-07-15T08:09:07.002Z,986.36
2018-07-15T08:10:06.986Z,986.26
2018-07-15T08:11:06.998Z,986.38
2018-07-15T08:12:07.000Z,986.21
2018-07-15T08:13:07.735Z,986.12
2018-07-15T08:14:07.003Z,986.38
2018-07-15T08:15:07.018Z,986.08
2018-07-15T08:16:07.009Z,986.1
2018-07-15T08:17:06.993Z,985.89
2018-07-15T08:18:06.986Z,985.81
2018-07-15T08:19:07.032Z,985.89
2018-07-15T08:20:07.022Z,985.43
2018-07-15T08:21:07.011Z,985.79
2018-07-15T08:22:07.021Z,985.61
2018-07-15T08:23:07.323Z,985.8
2018-07-15T08:24:07.005Z,985.48
2018-07-15T08:25:07.008Z,985.61
2018-07-15T08:26:06.991Z,985.19
2018-07-15T08:27:07.044Z,985.29
2018-07-15T08:28:07.057Z,985.38
2018-07-15T08:29:07.019Z,985.48
2018-07-15T08:30:07.026Z,985.46
2018-07-15T08:31:07.003Z,985.29
2018-07-15T08:32:07.001Z,985.21
2018-07-15T08:33:07.035Z,985
2018-07-15T08:34:07.025Z,984.95
2018-07-15T08:35:07.023Z,984.8
2018-07-15T08:36:07.039Z,984.79
2018-07-15T08:37:07.049Z,984.75
2018-07-15T08:38:07.038Z,984.69
2018-07-15T08:39:07.055Z,984.46
2018-07-15T08:40:07.055Z,984.34
2018-07-15T08:41:07.031Z,984.46
2018-07-15T08:42:07.083Z,984.37
2018-07-15T08:43:07.029Z,984.23
2018-07-15T08:44:07.084Z,984.03
2018-07-15T08:45:07.112Z,984.11
2018-07-15T08:46:07.084Z,984.19
2018-07-15T08:47:07.062Z,983.85
2018-07-15T08:48:07.047Z,983.99
2018-07-15T08:49:07.043Z,983.65
2018-07-15T08:50:07.045Z,984.11
2018-07-15T08:51:07.048Z,984.05
2018-07-15T08:53:25.980Z,984.59
2018-07-15T08:54:25.967Z,984.39
2018-07-15T08:55:25.994Z,984.22
2018-07-15T08:56:25.983Z,983.83
2018-07-15T08:57:25.979Z,983.9
2018-07-15T08:58:25.986Z,983.98
2018-07-15T08:59:25.967Z,983.84
2018-07-15T09:00:25.975Z,983.91
2018-07-15T09:01:25.985Z,984.23
2018-07-15T09:02:25.989Z,984.09
2018-07-15T09:03:26.056Z,984.1
2018-07-15T09:04:25.979Z,984.1
2018-07-15T09:05:26.035Z,983.88
2018-07-15T09:06:25.989Z,983.97
2018-07-15T09:07:26.028Z,983.93
2018-07-15T09:08:26.070Z,983.78
2018-07-15T09:09:26.015Z,983.51
2018-07-15T09:10:26.076Z,983.46
2018-07-15T09:11:26.031Z,983.5
2018-07-15T09:12:26.035Z,983.6
2018-07-15T09:13:26.009Z,983.87
2018-07-15T09:14:25.994Z,983.88
2018-07-15T09:15:25.998Z,984.07
2018-07-15T09:16:26.028Z,983.77
2018-07-15T09:17:26.063Z,983.97
2018-07-15T09:18:26.060Z,983.89
2018-07-15T09:19:26.059Z,983.69
2018-07-15T09:20:26.030Z,983.66
2018-07-15T09:21:26.008Z,983.58
2018-07-15T09:22:26.096Z,983.65
2018-07-15T09:23:26.101Z,983.76
2018-07-15T09:24:26.036Z,983.64
2018-07-15T09:25:26.066Z,983.75
2018-07-15T09:26:26.095Z,983.51
2018-07-15T09:27:26.033Z,983.66
2018-07-15T09:28:26.393Z,983.47
2018-07-15T09:29:26.052Z,983.36
2018-07-15T09:30:26.040Z,983.52
2018-07-15T09:31:26.027Z,983.41
2018-07-15T09:32:26.030Z,983.14
2018-07-15T09:33:26.038Z,983.38
2018-07-15T09:34:26.042Z,983.5
2018-07-15T09:35:26.046Z,983.32
2018-07-15T09:39:54.982Z,982.81
2018-07-15T09:40:54.986Z,983.27
2018-07-15T09:41:54.957Z,982.99
2018-07-15T09:42:54.946Z,983.21
2018-07-15T09:43:54.957Z,983.53
2018-07-15T09:44:54.960Z,982.75
2018-07-15T09:45:54.938Z,982.63
2018-07-15T09:46:54.959Z,982.48
2018-07-15T09:47:54.965Z,982.48
2018-07-15T09:48:54.957Z,983.03
2018-07-15T09:49:54.964Z,982.78
2018-07-15T09:50:54.958Z,982.45
2018-07-15T09:51:54.978Z,982.46
2018-07-15T09:52:54.962Z,982.32
2018-07-15T09:53:55.003Z,982.32
2018-07-15T09:54:54.972Z,982.11
2018-07-15T09:55:54.957Z,981.97
2018-07-15T09:56:54.986Z,982.18
2018-07-15T09:57:54.970Z,982.13
2018-07-15T09:58:54.999Z,982.14
2018-07-15T09:59:54.986Z,982
2018-07-15T10:00:54.988Z,982.1
2018-07-15T10:01:54.994Z,982.09
2018-07-15T10:02:55.013Z,982.07
2018-07-15T10:03:55.302Z,982.02
2018-07-15T10:04:55.015Z,982.03
2018-07-15T10:05:55.006Z,982.18
2018-07-15T10:06:55.033Z,982.05
2018-07-15T10:07:54.984Z,982.3
2018-07-15T10:08:55.002Z,981.83
2018-07-15T10:09:55.001Z,981.82
2018-07-15T10:10:55.008Z,981.81
2018-07-15T10:11:54.984Z,982.02
2018-07-15T10:12:55.004Z,981.92
2018-07-15T10:13:54.997Z,982.16
2018-07-15T10:14:55.016Z,981.82
2018-07-15T10:15:55.013Z,981.95
2018-07-15T10:16:55.017Z,981.9
2018-07-15T10:17:55.025Z,981.87
2018-07-15T10:18:55.036Z,981.94
2018-07-15T10:19:55.017Z,982.15
2018-07-15T10:20:55.041Z,982.32
2018-07-15T10:21:55.025Z,982.12
2018-07-15T10:22:55.037Z,982.01
2018-07-15T10:23:55.010Z,981.83
2018-07-15T10:24:55.024Z,982.29
2018-07-15T10:25:55.029Z,982.1
2018-07-15T10:26:55.065Z,982.38
2018-07-15T10:27:55.060Z,982.37
2018-07-15T10:28:55.050Z,982.25
2018-07-15T10:29:55.023Z,981.83
2018-07-15T10:30:55.056Z,982
2018-07-15T10:31:55.046Z,981.66
2018-07-15T10:32:55.073Z,981.87
2018-07-15T10:33:55.110Z,981.93
2018-07-15T10:34:55.090Z,981.86
2018-07-15T10:35:55.034Z,982.4
2018-07-15T10:36:55.053Z,981.63
2018-07-15T10:37:55.086Z,982.08
2018-07-15T10:38:56.380Z,982.21
2018-07-15T10:39:56.091Z,981.84
2018-07-15T10:40:55.055Z,982.39
2018-07-15T10:41:55.052Z,982.06
2018-07-15T10:42:55.067Z,981.8
2018-07-15T10:43:55.063Z,981.88
2018-07-15T10:44:55.488Z,982.44
2018-07-15T10:45:55.077Z,982.44
2018-07-15T10:46:55.142Z,982.44
2018-07-15T10:47:55.063Z,982.59
2018-07-15T10:48:55.058Z,982.19
2018-07-15T10:49:55.077Z,982.18
2018-07-15T10:50:55.066Z,982.24
2018-07-15T10:51:55.091Z,982.3
2018-07-15T10:52:55.148Z,982.4
2018-07-15T10:53:55.091Z,982.51
2018-07-15T10:54:55.088Z,982.52
2018-07-15T10:55:55.097Z,982.89
2018-07-15T10:56:55.082Z,982.59
2018-07-15T10:57:55.080Z,982.52
2018-07-15T10:58:55.098Z,982.56
2018-07-15T10:59:55.227Z,982.42
2018-07-15T11:00:55.142Z,982.81
2018-07-15T11:01:55.133Z,983.09
2018-07-15T11:02:55.108Z,982.69
2018-07-15T11:03:55.121Z,983
2018-07-15T11:04:55.126Z,983.18
2018-07-15T11:05:55.137Z,982.83
2018-07-15T11:06:55.193Z,983.09
2018-07-15T11:07:55.113Z,983.15
2018-07-15T11:08:55.444Z,983.13
2018-07-15T11:09:55.102Z,983.21
2018-07-15T11:10:55.147Z,983.45
2018-07-15T11:11:55.129Z,983.05
2018-07-15T11:12:55.110Z,983.06
2018-07-15T11:13:55.141Z,983.07
2018-07-15T11:14:55.167Z,983.33
2018-07-15T11:15:55.118Z,983.55
2018-07-15T11:16:55.144Z,983.58
2018-07-15T11:17:55.116Z,983.62
2018-07-15T11:18:55.141Z,983.42
2018-07-15T11:19:55.124Z,983.84
2018-07-15T11:20:55.137Z,983.62
2018-07-15T11:21:55.130Z,983.85
2018-07-15T11:22:55.130Z,984.06
2018-07-15T11:23:55.130Z,983.97
2018-07-15T11:24:55.131Z,983.98
2018-07-15T11:25:55.156Z,984.38
2018-07-15T11:26:55.166Z,984.08
2018-07-15T11:27:55.128Z,984.19
2018-07-15T11:28:55.151Z,984.23
2018-07-15T11:29:55.144Z,984.11
2018-07-15T11:30:55.260Z,984.36
2018-07-15T11:31:55.168Z,984.39
2018-07-15T11:32:55.148Z,984.67
2018-07-15T11:33:55.186Z,984.49
2018-07-15T11:34:55.149Z,984.55
2018-07-15T11:35:55.255Z,984.43
2018-07-15T11:36:55.187Z,984.81
2018-07-15T11:37:55.198Z,984.64
2018-07-15T11:38:55.241Z,984.37
2018-07-15T11:39:55.226Z,984.37
2018-07-15T11:40:55.188Z,984.81
2018-07-15T11:41:55.186Z,984.94
2018-07-15T11:42:55.193Z,984.92
2018-07-15T11:43:55.199Z,984.66
2018-07-15T11:44:55.225Z,984.72
2018-07-15T11:45:55.189Z,984.6
2018-07-15T11:46:55.168Z,984.84
2018-07-15T11:47:55.177Z,984.59
2018-07-15T11:48:55.176Z,984.94
2018-07-15T11:49:55.158Z,984.85
2018-07-15T11:50:56.585Z,984.83
2018-07-15T11:51:55.168Z,984.83
2018-07-15T11:52:55.182Z,984.78
2018-07-15T11:53:55.187Z,984.85
2018-07-15T11:54:55.214Z,985.02
2018-07-15T11:55:55.174Z,984.87
2018-07-15T11:56:55.256Z,985.02
2018-07-15T11:57:55.262Z,985.19
2018-07-15T11:58:55.253Z,985.21
2018-07-15T11:59:55.222Z,985.32
2018-07-15T12:00:55.179Z,985.3
2018-07-15T12:01:55.257Z,985.61
2018-07-15T12:02:55.192Z,985.75
2018-07-15T12:03:55.205Z,985.52
2018-07-15T12:04:55.233Z,985.54
2018-07-15T12:05:55.201Z,985.52
2018-07-15T12:06:55.223Z,985.42
2018-07-15T12:07:55.255Z,985.62
2018-07-15T12:08:55.302Z,985.42
2018-07-15T12:09:55.269Z,985.51
2018-07-15T12:10:55.242Z,985.5
2018-07-15T12:11:55.294Z,985.72
2018-07-15T12:12:55.215Z,985.45
2018-07-15T12:13:55.220Z,985.36
2018-07-15T12:14:55.282Z,985.78
2018-07-15T12:15:55.232Z,985.99
2018-07-15T12:16:55.289Z,985.74
2018-07-15T12:19:14.073Z,985.92
2018-07-15T12:20:14.053Z,985.69
2018-07-15T12:21:14.062Z,985.76
2018-07-15T12:22:14.058Z,986.12
2018-07-15T12:23:14.088Z,986.03
2018-07-15T12:24:14.058Z,986.05
2018-07-15T12:25:14.062Z,986.58
2018-07-15T12:26:14.082Z,986.42
2018-07-15T12:27:14.175Z,986.36
2018-07-15T12:28:14.160Z,986.18
2018-07-15T12:29:14.105Z,986.37
2018-07-15T12:30:14.108Z,986.79
2018-07-15T12:31:14.092Z,986.23
2018-07-15T12:32:14.077Z,986.75
2018-07-15T12:33:14.080Z,986.87
2018-07-15T12:34:14.111Z,986.52
2018-07-15T12:35:14.087Z,986.78
2018-07-15T12:36:14.113Z,986.81
2018-07-15T12:37:14.082Z,986.63
2018-07-15T12:38:14.136Z,986.64
2018-07-15T12:39:14.256Z,986.78
2018-07-15T12:40:14.135Z,986.83
2018-07-15T12:41:14.160Z,986.88
2018-07-15T12:42:14.115Z,986.98
2018-07-15T12:43:14.105Z,987.12
2018-07-15T12:44:14.179Z,986.99
2018-07-15T12:45:14.114Z,987.28
2018-07-15T12:46:14.119Z,987.15